createdAt,value
2019-04-03T00:00:15.246Z,11.00
2019-04-03T00:02:46.143Z,11.20
2019-04-03T00:05:17.185Z,11.00
2019-04-03T00:07:47.768Z,11.00
2019-04-03T00:10:22.107Z,11.00
2019-04-03T00:13:00.198Z,11.00
2019-04-03T00:15:25.973Z,11.00
2019-04-03T00:17:57.026Z,11.00
2019-04-03T00:20:28.122Z,10.90
2019-04-03T00:22:59.117Z,10.90
2019-04-03T00:25:30.001Z,10.80
2019-04-03T00:28:02.661Z,10.80
2019-04-03T00:30:34.165Z,10.80
2019-04-03T00:33:04.768Z,10.80
2019-04-03T00:35:35.348Z,10.70
2019-04-03T00:38:05.920Z,10.70
2019-04-03T00:40:36.810Z,10.60
2019-04-03T00:43:11.078Z,10.40
2019-04-03T00:45:41.563Z,10.60
2019-04-03T00:48:12.107Z,10.70
2019-04-03T00:50:43.173Z,10.70
2019-04-03T00:53:13.827Z,10.70
2019-04-03T00:55:46.271Z,10.70
2019-04-03T00:58:39.971Z,10.70
2019-04-03T01:01:12.509Z,10.70
2019-04-03T01:06:23.725Z,10.70
2019-04-03T01:08:54.347Z,10.60
2019-04-03T01:11:26.039Z,10.60
2019-04-03T01:13:56.695Z,10.60
2019-04-03T01:16:32.394Z,10.50
2019-04-03T01:19:06.808Z,10.50
2019-04-03T01:21:37.565Z,10.40
2019-04-03T01:24:08.577Z,10.20
2019-04-03T01:26:40.866Z,10.20
2019-04-03T01:29:15.774Z,10.20
2019-04-03T01:31:47.233Z,10.10
2019-04-03T01:34:18.108Z,10.20
2019-04-03T01:36:49.297Z,10.20
2019-04-03T01:39:21.120Z,10.30
2019-04-03T01:41:52.420Z,10.20
2019-04-03T01:44:24.761Z,10.20
2019-04-03T01:46:57.657Z,10.30
2019-04-03T01:49:28.909Z,10.20
2019-04-03T01:52:00.888Z,9.60
2019-04-03T01:54:33.724Z,9.70
2019-04-03T01:57:06.614Z,9.60
2019-04-03T01:59:40.658Z,9.40
2019-04-03T02:02:11.192Z,9.30
2019-04-03T02:04:42.799Z,9.20
2019-04-03T02:07:14.847Z,9.20
2019-04-03T02:09:46.593Z,9.10
2019-04-03T02:12:19.684Z,9.10
2019-04-03T02:14:51.551Z,9.10
2019-04-03T02:17:26.110Z,9.30
2019-04-03T02:19:57.105Z,9.40
2019-04-03T02:22:29.498Z,9.50
2019-04-03T02:25:04.133Z,9.50
2019-04-03T02:27:34.727Z,9.50
2019-04-03T02:30:07.536Z,9.60
2019-04-03T02:32:39.433Z,9.70
2019-04-03T02:35:10.359Z,9.70
2019-04-03T02:37:41.135Z,9.70
2019-04-03T02:40:13.572Z,9.90
2019-04-03T02:42:44.578Z,9.90
2019-04-03T02:45:17.964Z,9.70
2019-04-03T02:47:48.826Z,9.90
2019-04-03T02:50:26.394Z,9.90
2019-04-03T02:52:59.000Z,9.90
2019-04-03T02:55:30.512Z,9.90
2019-04-03T02:58:01.952Z,9.80
2019-04-03T03:00:33.807Z,9.70
2019-04-03T03:03:06.195Z,9.80
2019-04-03T03:05:37.219Z,9.90
2019-04-03T03:08:09.211Z,9.90
2019-04-03T03:10:41.096Z,9.80
2019-04-03T03:13:15.484Z,9.80
2019-04-03T03:15:45.566Z,9.80
2019-04-03T03:18:16.434Z,9.80
2019-04-03T03:20:47.514Z,9.80
2019-04-03T03:23:22.532Z,9.90
2019-04-03T03:25:54.843Z,9.90
2019-04-03T03:28:29.840Z,9.90
2019-04-03T03:31:04.895Z,9.90
2019-04-03T03:33:38.958Z,9.90
2019-04-03T03:36:08.536Z,9.90
2019-04-03T03:38:40.904Z,10.00
2019-04-03T03:41:12.080Z,10.00
2019-04-03T03:43:46.419Z,10.10
2019-04-03T03:46:18.198Z,10.20
2019-04-03T03:48:50.465Z,10.10
2019-04-03T03:51:22.827Z,10.20
2019-04-03T03:53:55.620Z,10.30
2019-04-03T03:56:30.562Z,10.40
2019-04-03T03:58:59.971Z,10.50
2019-04-03T04:01:32.662Z,10.50
2019-04-03T04:04:04.021Z,10.50
2019-04-03T04:06:36.571Z,10.40
2019-04-03T04:09:09.310Z,10.40
2019-04-03T04:11:41.552Z,10.50
2019-04-03T04:14:13.682Z,10.70
2019-04-03T04:16:48.759Z,10.70
2019-04-03T04:19:20.298Z,10.70
2019-04-03T04:21:56.231Z,10.80
2019-04-03T04:24:28.067Z,10.80
2019-04-03T04:27:02.751Z,10.90
2019-04-03T04:29:32.620Z,11.00
2019-04-03T04:32:03.503Z,11.00
2019-04-03T04:34:36.046Z,11.00
2019-04-03T04:37:07.227Z,11.00
2019-04-03T04:39:38.867Z,10.90
2019-04-03T04:42:10.119Z,11.00
2019-04-03T04:44:41.191Z,10.90
2019-04-03T04:47:14.631Z,10.90
2019-04-03T04:49:44.693Z,11.00
2019-04-03T04:52:15.815Z,11.00
2019-04-03T04:54:49.671Z,10.90
2019-04-03T04:57:20.765Z,10.90
2019-04-03T04:59:54.921Z,10.90
2019-04-03T05:02:25.956Z,11.10
2019-04-03T05:04:56.734Z,11.40
2019-04-03T05:07:30.869Z,11.20
2019-04-03T05:13:05.134Z,11.30
2019-04-03T05:15:39.527Z,11.40
2019-04-03T05:18:12.308Z,11.40
2019-04-03T05:20:43.184Z,11.60
2019-04-03T05:23:14.271Z,11.50
2019-04-03T05:25:45.479Z,11.70
2019-04-03T05:28:16.218Z,12.00
2019-04-03T05:30:47.004Z,12.40
2019-04-03T05:33:17.578Z,13.10
2019-04-03T05:35:52.216Z,13.80
2019-04-03T05:38:22.727Z,14.50
2019-04-03T05:40:53.205Z,14.90
2019-04-03T05:43:27.119Z,15.10
2019-04-03T05:45:57.880Z,15.50
2019-04-03T05:48:28.478Z,15.70
2019-04-03T05:50:59.098Z,15.10
2019-04-03T05:53:30.109Z,14.70
2019-04-03T05:56:01.330Z,15.00
2019-04-03T05:58:31.979Z,15.40
2019-04-03T06:01:06.565Z,16.00
2019-04-03T06:03:40.764Z,16.30
2019-04-03T06:06:10.276Z,16.60
2019-04-03T06:08:40.934Z,17.30
2019-04-03T06:11:12.176Z,17.40
2019-04-03T06:13:42.766Z,17.30
2019-04-03T06:16:16.223Z,17.10
2019-04-03T06:18:47.534Z,17.10
2019-04-03T06:21:18.441Z,17.30
2019-04-03T06:23:50.859Z,17.10
2019-04-03T06:26:22.349Z,17.00
2019-04-03T06:28:52.930Z,16.10
2019-04-03T06:31:26.266Z,15.80
2019-04-03T06:33:56.218Z,15.40
2019-04-03T06:36:29.644Z,14.50
2019-04-03T06:39:00.954Z,14.10
2019-04-03T06:41:31.538Z,13.80
2019-04-03T06:44:02.117Z,13.70
2019-04-03T06:46:33.325Z,13.70
2019-04-03T06:49:03.987Z,13.60
2019-04-03T06:51:41.546Z,13.60
2019-04-03T06:54:11.939Z,13.60
2019-04-03T06:56:44.757Z,13.60
2019-04-03T06:59:18.385Z,13.70
2019-04-03T07:01:48.176Z,13.70
2019-04-03T07:04:28.230Z,13.70
2019-04-03T07:06:58.807Z,13.40
2019-04-03T07:09:36.106Z,13.50
2019-04-03T07:12:25.873Z,13.50
2019-04-03T07:14:57.295Z,13.80
2019-04-03T07:17:32.408Z,14.30
2019-04-03T07:20:13.511Z,14.80
2019-04-03T07:22:38.556Z,15.20
2019-04-03T07:25:09.214Z,15.60
2019-04-03T07:27:41.874Z,16.40
2019-04-03T07:30:12.550Z,17.10
2019-04-03T07:32:43.291Z,17.60
2019-04-03T07:35:15.639Z,18.30
2019-04-03T07:37:50.438Z,19.00
2019-04-03T07:40:21.353Z,19.90
2019-04-03T07:42:55.629Z,20.20
2019-04-03T07:45:24.855Z,20.80
2019-04-03T07:47:55.807Z,21.70
2019-04-03T07:50:30.905Z,22.60
2019-04-03T07:53:01.511Z,23.40
2019-04-03T07:55:34.044Z,23.60
2019-04-03T07:58:04.447Z,23.20
2019-04-03T08:00:42.119Z,24.10
2019-04-03T08:03:15.321Z,24.50
2019-04-03T08:05:44.921Z,25.00
2019-04-03T08:08:15.494Z,24.40
2019-04-03T08:10:46.628Z,23.50
2019-04-03T08:13:17.189Z,21.60
2019-04-03T08:15:48.013Z,20.70
2019-04-03T08:18:24.159Z,20.00
2019-04-03T08:20:55.116Z,20.00
2019-04-03T08:23:30.791Z,19.80
2019-04-03T08:26:01.840Z,19.90
2019-04-03T08:28:33.218Z,20.60
2019-04-03T08:31:03.978Z,21.10
2019-04-03T08:33:34.737Z,21.10
2019-04-03T08:36:08.076Z,21.20
2019-04-03T08:38:38.637Z,21.20
2019-04-03T08:41:11.336Z,21.50
2019-04-03T08:43:42.174Z,22.00
2019-04-03T08:46:14.750Z,21.80
2019-04-03T08:48:45.665Z,22.50
2019-04-03T08:51:19.563Z,23.20
2019-04-03T08:53:50.130Z,23.30
2019-04-03T08:56:20.673Z,22.90
2019-04-03T08:58:51.044Z,22.70
2019-04-03T09:01:21.799Z,22.70
2019-04-03T09:03:52.324Z,22.80
2019-04-03T09:06:23.461Z,22.60
2019-04-03T09:08:54.139Z,23.00
2019-04-03T09:11:26.138Z,22.60
2019-04-03T09:13:56.666Z,22.40
2019-04-03T09:16:30.233Z,22.40
2019-04-03T09:18:59.524Z,22.60
2019-04-03T09:21:30.172Z,23.00
2019-04-03T09:24:00.750Z,22.50
2019-04-03T09:26:34.871Z,22.30
2019-04-03T09:29:04.475Z,22.00
2019-04-03T09:31:35.178Z,22.00
2019-04-03T09:34:05.808Z,22.60
2019-04-03T09:36:36.346Z,22.70
2019-04-03T09:39:13.934Z,22.90
2019-04-03T09:41:43.591Z,22.90
2019-04-03T09:44:14.379Z,22.70
2019-04-03T09:46:45.349Z,22.90
2019-04-03T09:49:16.429Z,22.40
2019-04-03T09:51:47.132Z,22.40
2019-04-03T09:54:17.674Z,22.40
2019-04-03T09:57:04.486Z,22.00
2019-04-03T09:59:31.564Z,21.50
2019-04-03T10:02:02.279Z,20.60
2019-04-03T10:04:33.280Z,20.50
2019-04-03T10:07:04.446Z,19.80
2019-04-03T10:09:37.878Z,20.10
2019-04-03T10:12:07.398Z,20.30
2019-04-03T10:14:38.758Z,19.30
2019-04-03T10:17:09.436Z,20.00
2019-04-03T10:19:40.294Z,20.00
2019-04-03T10:22:10.786Z,20.60
2019-04-03T10:24:41.144Z,21.20
2019-04-03T10:27:11.996Z,20.80
2019-04-03T10:29:42.767Z,20.30
2019-04-03T10:32:13.404Z,19.80
2019-04-03T10:34:43.960Z,20.00
2019-04-03T10:37:16.031Z,20.20
2019-04-03T10:39:47.541Z,20.60
2019-04-03T10:42:31.182Z,20.90
2019-04-03T10:45:01.244Z,21.50
2019-04-03T10:47:41.310Z,21.50
2019-04-03T10:50:07.236Z,21.50
2019-04-03T10:52:38.191Z,21.50
2019-04-03T10:55:10.184Z,21.60
2019-04-03T10:57:40.803Z,21.60
2019-04-03T11:00:13.962Z,21.40
2019-04-03T11:02:44.590Z,21.00
2019-04-03T11:05:18.286Z,20.20
2019-04-03T11:07:50.495Z,20.20
2019-04-03T11:10:25.280Z,20.30
2019-04-03T11:12:56.728Z,20.50
2019-04-03T11:15:28.186Z,20.60
2019-04-03T11:18:00.046Z,20.70
2019-04-03T11:20:30.658Z,20.80
2019-04-03T11:23:06.510Z,21.20
2019-04-03T11:25:33.924Z,21.50
2019-04-03T11:28:07.017Z,21.60
2019-04-03T11:30:39.870Z,22.00
2019-04-03T11:33:11.378Z,22.10
2019-04-03T11:35:43.752Z,22.00
2019-04-03T11:38:24.067Z,21.50
2019-04-03T11:40:50.306Z,20.50
2019-04-03T11:43:21.331Z,20.20
2019-04-03T11:45:51.891Z,19.90
2019-04-03T11:48:26.501Z,20.00
2019-04-03T11:50:57.526Z,20.00
2019-04-03T11:53:30.737Z,20.20
2019-04-03T11:56:04.266Z,20.20
2019-04-03T11:58:35.433Z,20.20
2019-04-03T12:01:10.943Z,20.00
2019-04-03T12:03:42.300Z,19.80
2019-04-03T12:06:15.666Z,19.80
2019-04-03T12:08:46.088Z,19.90
2019-04-03T12:11:16.832Z,20.10
2019-04-03T12:13:50.783Z,20.10
2019-04-03T12:16:24.054Z,19.80
2019-04-03T12:18:53.549Z,19.50
2019-04-03T12:21:24.494Z,19.30
2019-04-03T12:23:57.746Z,19.00
2019-04-03T12:26:27.537Z,18.50
2019-04-03T12:29:14.804Z,18.10
2019-04-03T12:31:45.213Z,18.20
2019-04-03T12:34:16.136Z,18.50
2019-04-03T12:36:47.171Z,18.70
2019-04-03T12:39:27.877Z,18.60
2019-04-03T12:41:59.601Z,18.60
2019-04-03T12:44:30.121Z,18.50
2019-04-03T12:47:00.593Z,18.50
2019-04-03T12:49:31.268Z,18.90
2019-04-03T12:52:03.705Z,19.60
2019-04-03T12:54:35.483Z,19.90
2019-04-03T12:57:06.818Z,20.30
2019-04-03T12:59:39.341Z,20.50
2019-04-03T13:02:09.697Z,20.40
2019-04-03T13:04:40.482Z,20.30
2019-04-03T13:07:13.815Z,20.30
2019-04-03T13:09:44.342Z,20.10
2019-04-03T13:12:16.488Z,20.20
2019-04-03T13:14:49.085Z,20.40
2019-04-03T13:17:19.938Z,20.30
2019-04-03T13:19:54.216Z,20.10
2019-04-03T13:22:28.721Z,20.10
2019-04-03T13:25:01.858Z,20.10
2019-04-03T13:27:32.819Z,20.00
2019-04-03T13:30:06.901Z,19.90
2019-04-03T13:32:37.572Z,19.50
2019-04-03T13:35:09.179Z,19.50
2019-04-03T13:37:42.238Z,19.50
2019-04-03T13:40:13.707Z,19.60
2019-04-03T13:42:47.581Z,19.60
2019-04-03T13:45:21.746Z,19.30
2019-04-03T13:47:52.376Z,19.40
2019-04-03T13:50:23.605Z,19.50
2019-04-03T13:52:55.099Z,19.60
2019-04-03T13:55:28.532Z,19.60
2019-04-03T13:57:57.984Z,19.30
2019-04-03T14:00:32.099Z,19.00
2019-04-03T14:03:00.791Z,18.80
2019-04-03T14:05:33.871Z,18.70
2019-04-03T14:08:06.498Z,19.00
2019-04-03T14:10:37.269Z,19.20
2019-04-03T14:13:10.758Z,19.20
2019-04-03T14:15:41.696Z,19.30
2019-04-03T14:18:12.415Z,18.90
2019-04-03T14:20:42.901Z,18.70
2019-04-03T14:23:13.442Z,18.60
2019-04-03T14:25:44.256Z,18.60
2019-04-03T14:28:15.096Z,18.70
2019-04-03T14:30:51.779Z,18.80
2019-04-03T14:33:23.471Z,18.90
2019-04-03T14:35:55.014Z,18.90
2019-04-03T14:38:27.706Z,18.70
2019-04-03T14:40:58.336Z,18.50
2019-04-03T14:43:33.271Z,18.20
2019-04-03T14:46:02.782Z,17.90
2019-04-03T14:48:36.316Z,18.00
2019-04-03T14:51:09.397Z,17.90
2019-04-03T14:53:40.400Z,17.70
2019-04-03T14:56:10.951Z,17.50
2019-04-03T14:58:41.576Z,17.50
2019-04-03T15:01:12.295Z,17.60
2019-04-03T15:03:43.177Z,17.70
2019-04-03T15:06:15.122Z,17.30
2019-04-03T15:08:46.348Z,17.20
2019-04-03T15:11:16.834Z,17.10
2019-04-03T15:13:49.491Z,17.10
2019-04-03T15:16:19.431Z,17.10
2019-04-03T15:18:50.341Z,17.00
2019-04-03T15:21:23.748Z,17.00
2019-04-03T15:23:53.579Z,16.90
2019-04-03T15:26:24.133Z,16.70
2019-04-03T15:28:54.732Z,16.80
2019-04-03T15:31:26.611Z,16.90
2019-04-03T15:33:59.481Z,16.60
2019-04-03T15:36:36.348Z,16.60
2019-04-03T15:39:16.781Z,16.60
2019-04-03T15:41:48.470Z,16.40
2019-04-03T15:44:21.442Z,16.40
2019-04-03T15:46:52.281Z,16.30
2019-04-03T15:49:25.608Z,16.30
2019-04-03T15:51:54.934Z,16.30
2019-04-03T15:54:26.462Z,16.40
2019-04-03T15:56:58.192Z,16.40
2019-04-03T15:59:30.749Z,16.30
2019-04-03T16:02:01.999Z,16.10
2019-04-03T16:04:34.610Z,16.10
2019-04-03T16:07:08.070Z,16.00
2019-04-03T16:09:38.214Z,16.00
2019-04-03T16:12:09.446Z,15.90
2019-04-03T16:14:40.914Z,15.80
2019-04-03T16:17:11.517Z,15.70
2019-04-03T16:19:44.406Z,15.50
2019-04-03T16:22:16.937Z,15.60
2019-04-03T16:24:48.808Z,15.60
2019-04-03T16:27:19.836Z,15.60
2019-04-03T16:29:50.760Z,15.70
2019-04-03T16:32:21.799Z,15.70
2019-04-03T16:34:52.936Z,15.70
2019-04-03T16:37:23.637Z,15.60
2019-04-03T16:39:54.153Z,15.70
2019-04-03T16:42:24.843Z,15.60
2019-04-03T16:44:57.805Z,15.70
2019-04-03T16:47:29.016Z,15.70
2019-04-03T16:50:00.410Z,15.60
2019-04-03T16:52:31.655Z,15.70
2019-04-03T16:55:02.371Z,15.60
2019-04-03T16:57:32.861Z,15.60
2019-04-03T17:00:08.412Z,15.60
2019-04-03T17:02:38.892Z,15.60
2019-04-03T17:05:11.734Z,15.60
2019-04-03T17:07:42.404Z,15.70
2019-04-03T17:10:13.486Z,15.60
2019-04-03T17:12:45.381Z,15.60
2019-04-03T17:15:22.376Z,15.50
2019-04-03T17:17:52.863Z,15.50
2019-04-03T17:20:24.769Z,15.50
2019-04-03T17:22:55.858Z,15.50
2019-04-03T17:28:28.965Z,15.40
2019-04-03T17:31:00.219Z,15.40
2019-04-03T17:33:32.337Z,15.30
2019-04-03T17:36:04.207Z,15.40
2019-04-03T17:38:34.738Z,15.30
2019-04-03T17:41:07.004Z,15.30
2019-04-03T17:43:38.782Z,15.30
2019-04-03T17:46:10.317Z,15.20
2019-04-03T17:48:42.597Z,15.20
2019-04-03T17:51:13.335Z,15.10
2019-04-03T17:53:44.080Z,15.10
2019-04-03T17:56:15.393Z,15.00
2019-04-03T17:58:47.661Z,15.10
2019-04-03T18:01:22.174Z,15.00
2019-04-03T18:03:51.436Z,15.00
2019-04-03T18:06:21.850Z,15.00
2019-04-03T18:08:52.473Z,15.00
2019-04-03T18:11:24.721Z,15.00
2019-04-03T18:13:55.624Z,14.90
2019-04-03T18:16:27.896Z,14.90
2019-04-03T18:18:58.564Z,14.80
2019-04-03T18:21:30.125Z,14.70
2019-04-03T18:24:00.867Z,14.70
2019-04-03T18:26:31.330Z,14.70
2019-04-03T18:29:01.847Z,14.60
2019-04-03T18:31:33.145Z,14.60
2019-04-03T18:34:03.828Z,14.60
2019-04-03T18:36:34.414Z,14.60
2019-04-03T18:39:09.745Z,14.50
2019-04-03T18:41:40.910Z,14.50
2019-04-03T18:44:21.548Z,14.40
2019-04-03T18:46:44.913Z,14.40
2019-04-03T18:49:15.331Z,14.30
2019-04-03T18:51:45.939Z,14.30
2019-04-03T18:54:16.416Z,14.40
2019-04-03T18:56:47.033Z,14.20
2019-04-03T18:59:17.572Z,14.20
2019-04-03T19:01:48.106Z,14.20
2019-04-03T19:04:18.672Z,14.20
2019-04-03T19:06:49.238Z,14.10
2019-04-03T19:09:21.253Z,14.10
2019-04-03T19:11:52.103Z,14.00
2019-04-03T19:14:27.484Z,14.00
2019-04-03T19:16:54.918Z,14.00
2019-04-03T19:19:25.931Z,14.00
2019-04-03T19:21:56.510Z,14.00
2019-04-03T19:24:27.021Z,13.90
2019-04-03T19:26:57.496Z,13.90
2019-04-03T19:29:28.154Z,13.90
2019-04-03T19:31:58.727Z,13.90
2019-04-03T19:34:30.049Z,13.80
2019-04-03T19:37:02.981Z,13.90
2019-04-03T19:39:33.244Z,13.90
2019-04-03T19:42:03.852Z,13.80
2019-04-03T19:44:34.622Z,13.80
2019-04-03T19:47:06.913Z,13.70
2019-04-03T19:49:40.105Z,13.70
2019-04-03T19:52:09.698Z,13.70
2019-04-03T19:54:40.086Z,13.70
2019-04-03T19:57:10.598Z,13.70
2019-04-03T19:59:41.038Z,13.70
2019-04-03T20:02:12.522Z,13.70
2019-04-03T20:04:42.954Z,13.70
2019-04-03T20:07:13.621Z,13.60
2019-04-03T20:09:44.010Z,13.60
2019-04-03T20:12:14.642Z,13.60
2019-04-03T20:14:57.452Z,13.60
2019-04-03T20:17:18.282Z,13.60
2019-04-03T20:19:48.790Z,13.50
2019-04-03T20:22:19.379Z,13.50
2019-04-03T20:24:59.445Z,13.50
2019-04-03T20:27:22.043Z,13.50
2019-04-03T20:29:52.631Z,13.50
2019-04-03T20:32:23.203Z,13.40
2019-04-03T20:34:53.672Z,13.40
2019-04-03T20:37:26.599Z,13.40
2019-04-03T20:39:59.568Z,13.70
2019-04-03T20:42:29.409Z,13.50
2019-04-03T20:44:59.980Z,13.50
2019-04-03T20:47:31.228Z,13.60
2019-04-03T20:50:01.758Z,13.70
2019-04-03T20:52:32.294Z,13.80
2019-04-03T20:55:02.778Z,13.70
2019-04-03T20:57:33.973Z,13.80
2019-04-03T21:00:13.261Z,13.70
2019-04-03T21:02:43.913Z,13.90
2019-04-03T21:05:17.713Z,13.90
2019-04-03T21:07:47.002Z,13.90
2019-04-03T21:10:17.944Z,13.60
2019-04-03T21:12:48.673Z,13.80
2019-04-03T21:15:19.033Z,13.80
2019-04-03T21:17:50.150Z,13.80
2019-04-03T21:20:21.908Z,14.00
2019-04-03T21:22:53.277Z,13.70
2019-04-03T21:25:24.288Z,13.80
2019-04-03T21:27:54.736Z,13.80
2019-04-03T21:30:25.658Z,13.80
2019-04-03T21:32:56.044Z,13.70
2019-04-03T21:35:26.779Z,13.80
2019-04-03T21:37:57.226Z,13.80
2019-04-03T21:40:27.800Z,13.80
2019-04-03T21:42:58.467Z,13.70
2019-04-03T21:45:28.881Z,13.80
2019-04-03T21:48:00.199Z,13.80
2019-04-03T21:50:31.970Z,13.80
2019-04-03T21:53:02.506Z,13.80
2019-04-03T21:55:35.199Z,13.90
2019-04-03T21:58:06.927Z,13.90
2019-04-03T22:01:01.038Z,13.90
2019-04-03T22:03:31.712Z,13.90
2019-04-03T22:06:02.456Z,13.80
2019-04-03T22:08:32.874Z,13.70
2019-04-03T22:11:04.647Z,13.70
2019-04-03T22:13:38.280Z,13.80
2019-04-03T22:16:08.518Z,13.70
2019-04-03T22:18:39.946Z,13.80
2019-04-03T22:21:10.496Z,13.80
2019-04-03T22:23:41.232Z,13.80
2019-04-03T22:26:11.772Z,13.80
2019-04-03T22:28:42.349Z,13.70
2019-04-03T22:31:12.804Z,13.70
2019-04-03T22:33:43.312Z,13.70
2019-04-03T22:36:13.860Z,13.70
2019-04-03T22:38:44.440Z,13.70
2019-04-03T22:41:14.899Z,13.70
2019-04-03T22:43:46.222Z,13.70
2019-04-03T22:46:17.091Z,13.60
2019-04-03T22:48:48.459Z,13.60
2019-04-03T22:51:18.842Z,13.70
2019-04-03T22:53:49.384Z,13.60
2019-04-03T22:56:19.990Z,13.60
2019-04-03T22:58:52.559Z,13.60
2019-04-03T23:01:22.516Z,13.60
2019-04-03T23:03:52.949Z,13.50
2019-04-03T23:06:23.492Z,13.50
2019-04-03T23:08:55.876Z,13.50
2019-04-03T23:11:26.418Z,13.50
2019-04-03T23:13:57.631Z,13.40
2019-04-03T23:16:28.047Z,13.40
2019-04-03T23:18:58.495Z,13.40
2019-04-03T23:21:29.476Z,13.30
2019-04-03T23:23:59.891Z,13.20
2019-04-03T23:26:32.170Z,13.20
2019-04-03T23:29:05.172Z,13.20
2019-04-03T23:31:35.908Z,13.10
2019-04-03T23:34:06.281Z,13.20
2019-04-03T23:36:36.903Z,13.10
2019-04-03T23:39:09.237Z,13.10
2019-04-03T23:41:39.834Z,13.10
2019-04-03T23:44:11.071Z,13.10
2019-04-03T23:46:43.875Z,13.10
2019-04-03T23:49:18.163Z,13.20
2019-04-03T23:51:49.595Z,13.10
2019-04-03T23:54:19.970Z,13.10
2019-04-03T23:56:50.482Z,13.00
2019-04-03T23:59:20.844Z,12.90
